sensor_id;sensor_type;location;lat;lon;timestamp;P1;durP1;ratioP1;P2;durP2;ratioP2
8564;SDS011;4320;51.498;6.556;2022-09-21T00:00:39;6.03;;;3.50;;
8564;SDS011;4320;51.498;6.556;2022-09-21T00:03:05;4.05;;;2.90;;
8564;SDS011;4320;51.498;6.556;2022-09-21T00:05:32;5.45;;;3.47;;
8564;SDS011;4320;51.498;6.556;2022-09-21T00:07:59;5.75;;;3.45;;
8564;SDS011;4320;51.498;6.556;2022-09-21T00:10:26;3.90;;;3.40;;
8564;SDS011;4320;51.498;6.556;2022-09-21T00:12:52;7.82;;;3.00;;
8564;SDS011;4320;51.498;6.556;2022-09-21T00:15:18;4.95;;;2.80;;
8564;SDS011;4320;51.498;6.556;2022-09-21T00:17:45;7.40;;;3.17;;
8564;SDS011;4320;51.498;6.556;2022-09-21T00:20:13;4.22;;;3.08;;
8564;SDS011;4320;51.498;6.556;2022-09-21T00:22:39;4.45;;;2.80;;
8564;SDS011;4320;51.498;6.556;2022-09-21T00:25:06;6.60;;;2.80;;
8564;SDS011;4320;51.498;6.556;2022-09-21T00:27:32;5.88;;;3.15;;
8564;SDS011;4320;51.498;6.556;2022-09-21T00:29:58;7.65;;;3.13;;
8564;SDS011;4320;51.498;6.556;2022-09-21T00:32:27;4.90;;;3.10;;
8564;SDS011;4320;51.498;6.556;2022-09-21T00:34:55;5.25;;;3.30;;
8564;SDS011;4320;51.498;6.556;2022-09-21T00:37:25;5.32;;;3.33;;
8564;SDS011;4320;51.498;6.556;2022-09-21T00:39:51;3.60;;;2.72;;
8564;SDS011;4320;51.498;6.556;2022-09-21T00:42:26;7.65;;;3.40;;
8564;SDS011;4320;51.498;6.556;2022-09-21T00:44:56;13.02;;;3.45;;
8564;SDS011;4320;51.498;6.556;2022-09-21T00:49:51;6.95;;;3.75;;
8564;SDS011;4320;51.498;6.556;2022-09-21T00:52:19;6.97;;;4.03;;
8564;SDS011;4320;51.498;6.556;2022-09-21T00:54:55;5.72;;;3.00;;
8564;SDS011;4320;51.498;6.556;2022-09-21T00:57:25;5.60;;;3.75;;
8564;SDS011;4320;51.498;6.556;2022-09-21T00:59:54;10.63;;;4.53;;
8564;SDS011;4320;51.498;6.556;2022-09-21T01:02:22;7.65;;;4.22;;
8564;SDS011;4320;51.498;6.556;2022-09-21T01:04:49;10.13;;;4.15;;
8564;SDS011;4320;51.498;6.556;2022-09-21T01:07:18;5.65;;;3.80;;
8564;SDS011;4320;51.498;6.556;2022-09-21T01:09:49;5.05;;;3.58;;
8564;SDS011;4320;51.498;6.556;2022-09-21T01:15:11;6.43;;;3.97;;
8564;SDS011;4320;51.498;6.556;2022-09-21T01:29:23;7.22;;;3.70;;
8564;SDS011;4320;51.498;6.556;2022-09-21T01:32:06;5.55;;;4.00;;
8564;SDS011;4320;51.498;6.556;2022-09-21T01:34:36;5.85;;;4.55;;
8564;SDS011;4320;51.498;6.556;2022-09-21T01:37:14;6.82;;;4.22;;
8564;SDS011;4320;51.498;6.556;2022-09-21T01:39:44;8.18;;;4.63;;
8564;SDS011;4320;51.498;6.556;2022-09-21T01:42:15;5.93;;;4.05;;
8564;SDS011;4320;51.498;6.556;2022-09-21T01:44:43;6.00;;;3.70;;
8564;SDS011;4320;51.498;6.556;2022-09-21T01:47:11;5.53;;;4.07;;
8564;SDS011;4320;51.498;6.556;2022-09-21T01:49:50;6.88;;;4.47;;
8564;SDS011;4320;51.498;6.556;2022-09-21T01:52:28;4.68;;;4.13;;
8564;SDS011;4320;51.498;6.556;2022-09-21T01:55:13;6.95;;;5.05;;
8564;SDS011;4320;51.498;6.556;2022-09-21T01:58:04;5.60;;;4.47;;
8564;SDS011;4320;51.498;6.556;2022-09-21T02:00:37;7.30;;;4.57;;
8564;SDS011;4320;51.498;6.556;2022-09-21T02:03:08;12.15;;;5.20;;
8564;SDS011;4320;51.498;6.556;2022-09-21T02:05:44;5.72;;;4.18;;
8564;SDS011;4320;51.498;6.556;2022-09-21T02:08:09;6.60;;;4.50;;
8564;SDS011;4320;51.498;6.556;2022-09-21T02:10:41;7.43;;;4.45;;
8564;SDS011;4320;51.498;6.556;2022-09-21T02:13:13;8.35;;;4.72;;
8564;SDS011;4320;51.498;6.556;2022-09-21T02:21:41;6.38;;;4.32;;
8564;SDS011;4320;51.498;6.556;2022-09-21T02:24:19;5.85;;;4.32;;
8564;SDS011;4320;51.498;6.556;2022-09-21T02:26:49;9.68;;;4.45;;
8564;SDS011;4320;51.498;6.556;2022-09-21T02:34:54;6.90;;;4.15;;
8564;SDS011;4320;51.498;6.556;2022-09-21T02:37:29;7.15;;;4.38;;
8564;SDS011;4320;51.498;6.556;2022-09-21T02:42:37;8.20;;;4.50;;
8564;SDS011;4320;51.498;6.556;2022-09-21T02:45:10;7.50;;;4.68;;
8564;SDS011;4320;51.498;6.556;2022-09-21T02:47:46;7.60;;;4.57;;
8564;SDS011;4320;51.498;6.556;2022-09-21T02:50:22;8.30;;;4.50;;
8564;SDS011;4320;51.498;6.556;2022-09-21T02:52:57;11.50;;;4.60;;
8564;SDS011;4320;51.498;6.556;2022-09-21T02:55:26;5.05;;;4.40;;
8564;SDS011;4320;51.498;6.556;2022-09-21T02:57:53;6.03;;;4.50;;
8564;SDS011;4320;51.498;6.556;2022-09-21T03:00:20;6.90;;;4.25;;
8564;SDS011;4320;51.498;6.556;2022-09-21T03:02:46;6.05;;;4.82;;
8564;SDS011;4320;51.498;6.556;2022-09-21T03:05:12;6.75;;;5.22;;
8564;SDS011;4320;51.498;6.556;2022-09-21T03:07:39;7.05;;;4.90;;
8564;SDS011;4320;51.498;6.556;2022-09-21T03:10:04;8.80;;;5.18;;
8564;SDS011;4320;51.498;6.556;2022-09-21T03:12:32;9.30;;;5.30;;
8564;SDS011;4320;51.498;6.556;2022-09-21T03:14:58;7.88;;;5.10;;
8564;SDS011;4320;51.498;6.556;2022-09-21T03:17:24;7.93;;;4.82;;
8564;SDS011;4320;51.498;6.556;2022-09-21T03:19:51;7.85;;;5.25;;
8564;SDS011;4320;51.498;6.556;2022-09-21T03:22:20;6.90;;;4.57;;
8564;SDS011;4320;51.498;6.556;2022-09-21T03:24:46;9.20;;;5.55;;
8564;SDS011;4320;51.498;6.556;2022-09-21T03:27:13;7.10;;;5.35;;
8564;SDS011;4320;51.498;6.556;2022-09-21T03:29:40;6.22;;;4.70;;
8564;SDS011;4320;51.498;6.556;2022-09-21T03:32:06;9.98;;;5.40;;
8564;SDS011;4320;51.498;6.556;2022-09-21T03:34:31;7.95;;;5.32;;
8564;SDS011;4320;51.498;6.556;2022-09-21T03:36:59;6.55;;;4.95;;
8564;SDS011;4320;51.498;6.556;2022-09-21T03:39:25;6.25;;;4.95;;
8564;SDS011;4320;51.498;6.556;2022-09-21T03:41:51;6.97;;;5.35;;
8564;SDS011;4320;51.498;6.556;2022-09-21T03:44:19;8.85;;;5.38;;
8564;SDS011;4320;51.498;6.556;2022-09-21T03:46:45;9.80;;;5.78;;
8564;SDS011;4320;51.498;6.556;2022-09-21T03:49:11;10.95;;;5.80;;
8564;SDS011;4320;51.498;6.556;2022-09-21T03:51:37;6.88;;;5.22;;
8564;SDS011;4320;51.498;6.556;2022-09-21T03:54:03;8.95;;;5.30;;
8564;SDS011;4320;51.498;6.556;2022-09-21T03:56:29;11.80;;;5.82;;
8564;SDS011;4320;51.498;6.556;2022-09-21T03:58:55;7.63;;;5.22;;
8564;SDS011;4320;51.498;6.556;2022-09-21T04:01:21;7.40;;;5.45;;
8564;SDS011;4320;51.498;6.556;2022-09-21T04:03:46;7.10;;;5.40;;
8564;SDS011;4320;51.498;6.556;2022-09-21T04:06:12;10.77;;;6.00;;
8564;SDS011;4320;51.498;6.556;2022-09-21T04:08:38;7.32;;;5.60;;
8564;SDS011;4320;51.498;6.556;2022-09-21T04:13:36;10.35;;;6.13;;
8564;SDS011;4320;51.498;6.556;2022-09-21T04:16:03;11.20;;;6.20;;
8564;SDS011;4320;51.498;6.556;2022-09-21T04:18:28;9.52;;;5.57;;
8564;SDS011;4320;51.498;6.556;2022-09-21T04:20:54;8.30;;;6.00;;
8564;SDS011;4320;51.498;6.556;2022-09-21T04:23:19;10.25;;;4.90;;
8564;SDS011;4320;51.498;6.556;2022-09-21T04:25:47;7.85;;;5.50;;
8564;SDS011;4320;51.498;6.556;2022-09-21T04:28:15;9.18;;;5.70;;
8564;SDS011;4320;51.498;6.556;2022-09-21T04:30:41;8.35;;;6.22;;
8564;SDS011;4320;51.498;6.556;2022-09-21T04:33:06;9.73;;;5.50;;
8564;SDS011;4320;51.498;6.556;2022-09-21T04:35:32;10.50;;;6.57;;
8564;SDS011;4320;51.498;6.556;2022-09-21T04:37:58;10.35;;;6.35;;
8564;SDS011;4320;51.498;6.556;2022-09-21T04:40:23;8.55;;;6.07;;
8564;SDS011;4320;51.498;6.556;2022-09-21T04:42:50;10.10;;;5.70;;
8564;SDS011;4320;51.498;6.556;2022-09-21T04:45:19;9.50;;;6.03;;
8564;SDS011;4320;51.498;6.556;2022-09-21T04:47:46;11.07;;;5.80;;
8564;SDS011;4320;51.498;6.556;2022-09-21T04:50:12;8.57;;;6.25;;
8564;SDS011;4320;51.498;6.556;2022-09-21T04:52:39;8.80;;;6.57;;
8564;SDS011;4320;51.498;6.556;2022-09-21T04:55:05;9.65;;;5.65;;
8564;SDS011;4320;51.498;6.556;2022-09-21T04:57:31;9.77;;;6.22;;
8564;SDS011;4320;51.498;6.556;2022-09-21T04:59:57;10.90;;;6.35;;
8564;SDS011;4320;51.498;6.556;2022-09-21T05:02:23;8.27;;;6.07;;
8564;SDS011;4320;51.498;6.556;2022-09-21T05:04:49;10.90;;;6.47;;
8564;SDS011;4320;51.498;6.556;2022-09-21T05:07:15;7.88;;;5.90;;
8564;SDS011;4320;51.498;6.556;2022-09-21T05:09:40;7.65;;;5.57;;
8564;SDS011;4320;51.498;6.556;2022-09-21T05:12:25;9.63;;;5.88;;
8564;SDS011;4320;51.498;6.556;2022-09-21T05:14:50;8.82;;;6.05;;
8564;SDS011;4320;51.498;6.556;2022-09-21T05:17:16;8.75;;;6.25;;
8564;SDS011;4320;51.498;6.556;2022-09-21T05:19:41;7.45;;;5.97;;
8564;SDS011;4320;51.498;6.556;2022-09-21T05:22:07;10.75;;;6.45;;
8564;SDS011;4320;51.498;6.556;2022-09-21T05:24:33;7.72;;;6.40;;
8564;SDS011;4320;51.498;6.556;2022-09-21T05:26:58;9.73;;;6.78;;
8564;SDS011;4320;51.498;6.556;2022-09-21T05:29:24;9.90;;;6.60;;
8564;SDS011;4320;51.498;6.556;2022-09-21T05:31:51;14.45;;;7.05;;
8564;SDS011;4320;51.498;6.556;2022-09-21T05:39:25;7.47;;;6.07;;
8564;SDS011;4320;51.498;6.556;2022-09-21T05:41:51;9.30;;;6.45;;
8564;SDS011;4320;51.498;6.556;2022-09-21T05:44:17;8.88;;;5.78;;
8564;SDS011;4320;51.498;6.556;2022-09-21T05:46:48;13.73;;;6.45;;
8564;SDS011;4320;51.498;6.556;2022-09-21T05:52:01;17.90;;;7.07;;
8564;SDS011;4320;51.498;6.556;2022-09-21T05:57:27;9.52;;;6.13;;
8564;SDS011;4320;51.498;6.556;2022-09-21T06:05:11;13.57;;;6.30;;
8564;SDS011;4320;51.498;6.556;2022-09-21T06:07:38;8.52;;;6.68;;
8564;SDS011;4320;51.498;6.556;2022-09-21T06:10:04;8.18;;;5.88;;
8564;SDS011;4320;51.498;6.556;2022-09-21T06:12:30;9.60;;;6.68;;
8564;SDS011;4320;51.498;6.556;2022-09-21T06:14:56;11.05;;;7.28;;
8564;SDS011;4320;51.498;6.556;2022-09-21T06:17:22;10.45;;;7.43;;
8564;SDS011;4320;51.498;6.556;2022-09-21T06:19:51;11.02;;;7.50;;
8564;SDS011;4320;51.498;6.556;2022-09-21T06:22:17;10.32;;;7.50;;
8564;SDS011;4320;51.498;6.556;2022-09-21T06:24:43;10.20;;;6.63;;
8564;SDS011;4320;51.498;6.556;2022-09-21T06:27:08;16.98;;;7.15;;
8564;SDS011;4320;51.498;6.556;2022-09-21T06:29:34;13.05;;;7.40;;
8564;SDS011;4320;51.498;6.556;2022-09-21T06:32:00;11.82;;;6.80;;
8564;SDS011;4320;51.498;6.556;2022-09-21T06:34:27;15.25;;;8.20;;
8564;SDS011;4320;51.498;6.556;2022-09-21T06:36:52;13.15;;;7.15;;
8564;SDS011;4320;51.498;6.556;2022-09-21T06:39:18;15.25;;;7.45;;
8564;SDS011;4320;51.498;6.556;2022-09-21T06:41:44;13.30;;;7.15;;
8564;SDS011;4320;51.498;6.556;2022-09-21T06:44:09;14.25;;;7.95;;
8564;SDS011;4320;51.498;6.556;2022-09-21T06:46:35;12.43;;;7.25;;
8564;SDS011;4320;51.498;6.556;2022-09-21T06:49:00;14.63;;;7.90;;
8564;SDS011;4320;51.498;6.556;2022-09-21T06:51:26;11.50;;;7.15;;
8564;SDS011;4320;51.498;6.556;2022-09-21T06:53:55;19.67;;;7.35;;
8564;SDS011;4320;51.498;6.556;2022-09-21T06:56:22;13.63;;;7.47;;
8564;SDS011;4320;51.498;6.556;2022-09-21T06:58:48;9.65;;;6.20;;
8564;SDS011;4320;51.498;6.556;2022-09-21T07:01:14;12.35;;;6.75;;
8564;SDS011;4320;51.498;6.556;2022-09-21T07:03:40;13.23;;;6.85;;
8564;SDS011;4320;51.498;6.556;2022-09-21T07:06:07;11.07;;;6.70;;
8564;SDS011;4320;51.498;6.556;2022-09-21T07:08:36;10.73;;;6.22;;
8564;SDS011;4320;51.498;6.556;2022-09-21T07:11:03;14.05;;;6.75;;
8564;SDS011;4320;51.498;6.556;2022-09-21T07:13:29;11.80;;;6.93;;
8564;SDS011;4320;51.498;6.556;2022-09-21T07:15:55;12.30;;;6.80;;
8564;SDS011;4320;51.498;6.556;2022-09-21T07:18:21;12.80;;;6.65;;
8564;SDS011;4320;51.498;6.556;2022-09-21T07:20:46;9.23;;;5.95;;
8564;SDS011;4320;51.498;6.556;2022-09-21T07:23:14;9.60;;;6.45;;
8564;SDS011;4320;51.498;6.556;2022-09-21T07:25:41;11.02;;;5.93;;
8564;SDS011;4320;51.498;6.556;2022-09-21T07:28:08;10.15;;;5.65;;
8564;SDS011;4320;51.498;6.556;2022-09-21T07:30:35;8.43;;;5.38;;
8564;SDS011;4320;51.498;6.556;2022-09-21T07:33:02;11.23;;;6.28;;
8564;SDS011;4320;51.498;6.556;2022-09-21T07:35:28;13.45;;;6.35;;
8564;SDS011;4320;51.498;6.556;2022-09-21T07:37:56;7.95;;;5.68;;
8564;SDS011;4320;51.498;6.556;2022-09-21T07:40:25;9.90;;;5.80;;
8564;SDS011;4320;51.498;6.556;2022-09-21T07:42:51;10.20;;;6.18;;
8564;SDS011;4320;51.498;6.556;2022-09-21T07:45:17;8.23;;;5.28;;
8564;SDS011;4320;51.498;6.556;2022-09-21T07:47:43;11.57;;;6.55;;
8564;SDS011;4320;51.498;6.556;2022-09-21T07:50:09;12.70;;;7.25;;
8564;SDS011;4320;51.498;6.556;2022-09-21T07:52:35;11.02;;;6.90;;
8564;SDS011;4320;51.498;6.556;2022-09-21T07:55:01;9.75;;;6.45;;
8564;SDS011;4320;51.498;6.556;2022-09-21T07:57:26;9.07;;;5.50;;
8564;SDS011;4320;51.498;6.556;2022-09-21T08:00:11;9.07;;;5.90;;
8564;SDS011;4320;51.498;6.556;2022-09-21T08:02:37;8.80;;;5.18;;
8564;SDS011;4320;51.498;6.556;2022-09-21T08:05:02;8.10;;;5.60;;
8564;SDS011;4320;51.498;6.556;2022-09-21T08:07:28;8.75;;;6.20;;
8564;SDS011;4320;51.498;6.556;2022-09-21T08:09:54;12.88;;;6.22;;
8564;SDS011;4320;51.498;6.556;2022-09-21T08:12:19;10.15;;;6.22;;
8564;SDS011;4320;51.498;6.556;2022-09-21T08:14:45;10.85;;;5.75;;
8564;SDS011;4320;51.498;6.556;2022-09-21T08:17:12;10.40;;;6.03;;
8564;SDS011;4320;51.498;6.556;2022-09-21T08:19:38;13.20;;;6.90;;
8564;SDS011;4320;51.498;6.556;2022-09-21T08:22:04;11.93;;;7.05;;
8564;SDS011;4320;51.498;6.556;2022-09-21T08:24:30;10.20;;;6.45;;
8564;SDS011;4320;51.498;6.556;2022-09-21T08:26:57;8.95;;;5.72;;
8564;SDS011;4320;51.498;6.556;2022-09-21T08:29:23;9.50;;;6.50;;
8564;SDS011;4320;51.498;6.556;2022-09-21T08:31:49;12.07;;;6.63;;
8564;SDS011;4320;51.498;6.556;2022-09-21T08:34:16;11.45;;;5.82;;
8564;SDS011;4320;51.498;6.556;2022-09-21T08:36:43;13.18;;;6.60;;
8564;SDS011;4320;51.498;6.556;2022-09-21T08:39:10;13.75;;;8.13;;
8564;SDS011;4320;51.498;6.556;2022-09-21T08:44:12;12.10;;;6.88;;
8564;SDS011;4320;51.498;6.556;2022-09-21T08:47:01;17.83;;;7.60;;
8564;SDS011;4320;51.498;6.556;2022-09-21T08:49:29;12.73;;;6.55;;
8564;SDS011;4320;51.498;6.556;2022-09-21T08:51:59;17.75;;;7.43;;
8564;SDS011;4320;51.498;6.556;2022-09-21T08:54:41;8.38;;;6.03;;
8564;SDS011;4320;51.498;6.556;2022-09-21T08:57:12;15.43;;;7.18;;
8564;SDS011;4320;51.498;6.556;2022-09-21T08:59:48;14.90;;;7.75;;
8564;SDS011;4320;51.498;6.556;2022-09-21T09:10:30;13.32;;;6.20;;
8564;SDS011;4320;51.498;6.556;2022-09-21T09:13:09;12.10;;;6.05;;
8564;SDS011;4320;51.498;6.556;2022-09-21T09:15:54;9.85;;;6.20;;
8564;SDS011;4320;51.498;6.556;2022-09-21T09:21:12;8.27;;;4.65;;
8564;SDS011;4320;51.498;6.556;2022-09-21T09:23:45;9.95;;;5.18;;
8564;SDS011;4320;51.498;6.556;2022-09-21T09:26:23;10.35;;;4.80;;
8564;SDS011;4320;51.498;6.556;2022-09-21T09:28:57;10.10;;;5.38;;
8564;SDS011;4320;51.498;6.556;2022-09-21T09:31:27;9.80;;;5.05;;
8564;SDS011;4320;51.498;6.556;2022-09-21T09:34:06;10.40;;;4.88;;
8564;SDS011;4320;51.498;6.556;2022-09-21T09:36:42;10.80;;;4.50;;
8564;SDS011;4320;51.498;6.556;2022-09-21T09:39:13;7.85;;;4.68;;
8564;SDS011;4320;51.498;6.556;2022-09-21T09:52:35;8.48;;;3.80;;
8564;SDS011;4320;51.498;6.556;2022-09-21T09:55:10;10.07;;;4.25;;
8564;SDS011;4320;51.498;6.556;2022-09-21T09:57:44;9.57;;;4.55;;
8564;SDS011;4320;51.498;6.556;2022-09-21T10:00:12;10.13;;;3.70;;
8564;SDS011;4320;51.498;6.556;2022-09-21T10:05:32;10.35;;;4.28;;
8564;SDS011;4320;51.498;6.556;2022-09-21T10:08:00;10.73;;;4.38;;
8564;SDS011;4320;51.498;6.556;2022-09-21T10:10:30;11.20;;;4.30;;
8564;SDS011;4320;51.498;6.556;2022-09-21T10:15:53;9.30;;;4.78;;
8564;SDS011;4320;51.498;6.556;2022-09-21T10:19:10;7.32;;;3.95;;
8564;SDS011;4320;51.498;6.556;2022-09-21T10:23:46;9.80;;;4.95;;
8564;SDS011;4320;51.498;6.556;2022-09-21T10:26:18;11.98;;;3.83;;
8564;SDS011;4320;51.498;6.556;2022-09-21T10:28:57;9.70;;;4.03;;
8564;SDS011;4320;51.498;6.556;2022-09-21T10:31:25;9.32;;;3.67;;
8564;SDS011;4320;51.498;6.556;2022-09-21T10:34:13;9.00;;;4.60;;
8564;SDS011;4320;51.498;6.556;2022-09-21T10:36:40;9.82;;;4.35;;
8564;SDS011;4320;51.498;6.556;2022-09-21T10:39:24;10.70;;;4.60;;
8564;SDS011;4320;51.498;6.556;2022-09-21T10:41:57;7.43;;;4.00;;
8564;SDS011;4320;51.498;6.556;2022-09-21T10:44:41;7.45;;;3.88;;
8564;SDS011;4320;51.498;6.556;2022-09-21T10:49:52;7.05;;;3.33;;
8564;SDS011;4320;51.498;6.556;2022-09-21T10:52:21;6.78;;;3.75;;
8564;SDS011;4320;51.498;6.556;2022-09-21T10:54:56;6.85;;;3.55;;
8564;SDS011;4320;51.498;6.556;2022-09-21T10:57:23;7.20;;;4.15;;
8564;SDS011;4320;51.498;6.556;2022-09-21T10:59:51;10.88;;;4.68;;
8564;SDS011;4320;51.498;6.556;2022-09-21T11:04:59;13.43;;;6.93;;
8564;SDS011;4320;51.498;6.556;2022-09-21T11:11:02;11.43;;;6.32;;
8564;SDS011;4320;51.498;6.556;2022-09-21T11:13:46;11.85;;;5.88;;
8564;SDS011;4320;51.498;6.556;2022-09-21T11:16:22;12.35;;;5.95;;
8564;SDS011;4320;51.498;6.556;2022-09-21T11:21:35;11.52;;;5.85;;
8564;SDS011;4320;51.498;6.556;2022-09-21T11:38:36;22.15;;;5.25;;
8564;SDS011;4320;51.498;6.556;2022-09-21T11:49:11;8.63;;;4.07;;
8564;SDS011;4320;51.498;6.556;2022-09-21T11:57:48;8.27;;;4.35;;
8564;SDS011;4320;51.498;6.556;2022-09-21T12:00:43;10.40;;;4.82;;
8564;SDS011;4320;51.498;6.556;2022-09-21T12:03:51;8.93;;;4.50;;
8564;SDS011;4320;51.498;6.556;2022-09-21T12:06:45;9.70;;;4.38;;
8564;SDS011;4320;51.498;6.556;2022-09-21T12:14:53;12.00;;;4.50;;
8564;SDS011;4320;51.498;6.556;2022-09-21T12:17:33;11.40;;;4.78;;
8564;SDS011;4320;51.498;6.556;2022-09-21T12:22:55;6.20;;;3.35;;
8564;SDS011;4320;51.498;6.556;2022-09-21T12:25:33;8.60;;;4.07;;
8564;SDS011;4320;51.498;6.556;2022-09-21T12:28:17;10.65;;;3.53;;
8564;SDS011;4320;51.498;6.556;2022-09-21T12:30:52;33.47;;;5.53;;
8564;SDS011;4320;51.498;6.556;2022-09-21T12:33:39;12.98;;;4.45;;
8564;SDS011;4320;51.498;6.556;2022-09-21T12:44:37;6.55;;;3.35;;
8564;SDS011;4320;51.498;6.556;2022-09-21T12:47:28;6.25;;;3.25;;
8564;SDS011;4320;51.498;6.556;2022-09-21T12:50:14;4.70;;;3.35;;
8564;SDS011;4320;51.498;6.556;2022-09-21T12:52:47;6.70;;;3.33;;
8564;SDS011;4320;51.498;6.556;2022-09-21T12:58:18;8.07;;;3.08;;
8564;SDS011;4320;51.498;6.556;2022-09-21T13:03:34;6.65;;;2.95;;
8564;SDS011;4320;51.498;6.556;2022-09-21T13:06:14;10.70;;;3.05;;
8564;SDS011;4320;51.498;6.556;2022-09-21T13:09:04;6.28;;;2.92;;
8564;SDS011;4320;51.498;6.556;2022-09-21T13:11:34;6.40;;;2.83;;
8564;SDS011;4320;51.498;6.556;2022-09-21T13:14:20;5.05;;;2.80;;
8564;SDS011;4320;51.498;6.556;2022-09-21T13:16:57;7.15;;;3.72;;
8564;SDS011;4320;51.498;6.556;2022-09-21T13:19:27;7.93;;;3.75;;
8564;SDS011;4320;51.498;6.556;2022-09-21T13:43:45;5.88;;;3.50;;
8564;SDS011;4320;51.498;6.556;2022-09-21T13:48:59;4.28;;;2.67;;
8564;SDS011;4320;51.498;6.556;2022-09-21T13:51:33;7.18;;;2.65;;
8564;SDS011;4320;51.498;6.556;2022-09-21T13:53:59;5.80;;;3.45;;
8564;SDS011;4320;51.498;6.556;2022-09-21T13:56:27;4.30;;;2.75;;
8564;SDS011;4320;51.498;6.556;2022-09-21T13:58:57;4.85;;;2.45;;
8564;SDS011;4320;51.498;6.556;2022-09-21T14:01:24;5.13;;;2.35;;
8564;SDS011;4320;51.498;6.556;2022-09-21T14:04:03;6.55;;;2.58;;
8564;SDS011;4320;51.498;6.556;2022-09-21T14:06:41;7.57;;;3.67;;
8564;SDS011;4320;51.498;6.556;2022-09-21T14:11:52;8.20;;;2.42;;
8564;SDS011;4320;51.498;6.556;2022-09-21T14:14:30;4.63;;;2.53;;
8564;SDS011;4320;51.498;6.556;2022-09-21T14:17:00;8.40;;;2.65;;
8564;SDS011;4320;51.498;6.556;2022-09-21T14:24:43;9.23;;;4.00;;
8564;SDS011;4320;51.498;6.556;2022-09-21T14:27:44;10.07;;;3.00;;
8564;SDS011;4320;51.498;6.556;2022-09-21T14:30:20;6.13;;;3.63;;
8564;SDS011;4320;51.498;6.556;2022-09-21T14:32:51;6.35;;;2.40;;
8564;SDS011;4320;51.498;6.556;2022-09-21T14:35:25;6.45;;;2.50;;
8564;SDS011;4320;51.498;6.556;2022-09-21T14:38:02;7.70;;;2.85;;
8564;SDS011;4320;51.498;6.556;2022-09-21T14:40:38;4.38;;;2.53;;
8564;SDS011;4320;51.498;6.556;2022-09-21T14:43:14;7.43;;;3.08;;
8564;SDS011;4320;51.498;6.556;2022-09-21T14:57:08;6.25;;;2.80;;
8564;SDS011;4320;51.498;6.556;2022-09-21T15:02:23;5.53;;;3.28;;
8564;SDS011;4320;51.498;6.556;2022-09-21T15:11:02;5.63;;;2.83;;
8564;SDS011;4320;51.498;6.556;2022-09-21T15:18:47;6.35;;;2.90;;
8564;SDS011;4320;51.498;6.556;2022-09-21T15:21:27;5.40;;;2.60;;
8564;SDS011;4320;51.498;6.556;2022-09-21T15:23:56;6.32;;;3.08;;
8564;SDS011;4320;51.498;6.556;2022-09-21T15:26:28;8.75;;;2.60;;
8564;SDS011;4320;51.498;6.556;2022-09-21T15:28:58;5.15;;;2.67;;
8564;SDS011;4320;51.498;6.556;2022-09-21T15:31:30;4.40;;;2.33;;
8564;SDS011;4320;51.498;6.556;2022-09-21T15:34:02;6.90;;;2.50;;
8564;SDS011;4320;51.498;6.556;2022-09-21T15:36:30;3.38;;;2.10;;
8564;SDS011;4320;51.498;6.556;2022-09-21T15:38:58;4.75;;;2.38;;
8564;SDS011;4320;51.498;6.556;2022-09-21T15:44:04;6.07;;;2.25;;
8564;SDS011;4320;51.498;6.556;2022-09-21T15:46:46;3.45;;;2.17;;
8564;SDS011;4320;51.498;6.556;2022-09-21T15:49:15;7.47;;;2.75;;
8564;SDS011;4320;51.498;6.556;2022-09-21T15:51:45;8.70;;;2.83;;
8564;SDS011;4320;51.498;6.556;2022-09-21T15:54:36;4.18;;;2.17;;
8564;SDS011;4320;51.498;6.556;2022-09-21T15:57:21;2.97;;;2.00;;
8564;SDS011;4320;51.498;6.556;2022-09-21T16:00:26;4.60;;;2.35;;
8564;SDS011;4320;51.498;6.556;2022-09-21T16:05:49;6.40;;;2.58;;
8564;SDS011;4320;51.498;6.556;2022-09-21T16:08:19;6.38;;;2.10;;
8564;SDS011;4320;51.498;6.556;2022-09-21T16:11:10;5.68;;;2.17;;
8564;SDS011;4320;51.498;6.556;2022-09-21T16:13:37;3.75;;;2.40;;
8564;SDS011;4320;51.498;6.556;2022-09-21T16:16:21;4.03;;;1.85;;
8564;SDS011;4320;51.498;6.556;2022-09-21T16:18:48;4.07;;;2.22;;
8564;SDS011;4320;51.498;6.556;2022-09-21T16:21:31;2.35;;;1.77;;
8564;SDS011;4320;51.498;6.556;2022-09-21T16:24:17;3.53;;;1.90;;
8564;SDS011;4320;51.498;6.556;2022-09-21T16:26:56;8.02;;;2.20;;
8564;SDS011;4320;51.498;6.556;2022-09-21T16:29:25;8.30;;;2.10;;
8564;SDS011;4320;51.498;6.556;2022-09-21T16:39:52;8.35;;;3.08;;
8564;SDS011;4320;51.498;6.556;2022-09-21T16:42:23;4.65;;;2.60;;
8564;SDS011;4320;51.498;6.556;2022-09-21T16:44:55;3.78;;;2.13;;
8564;SDS011;4320;51.498;6.556;2022-09-21T16:47:22;4.07;;;1.80;;
8564;SDS011;4320;51.498;6.556;2022-09-21T16:49:57;8.10;;;2.17;;
8564;SDS011;4320;51.498;6.556;2022-09-21T16:52:27;4.57;;;2.53;;
8564;SDS011;4320;51.498;6.556;2022-09-21T16:54:53;5.25;;;2.55;;
8564;SDS011;4320;51.498;6.556;2022-09-21T16:57:20;3.85;;;1.50;;
8564;SDS011;4320;51.498;6.556;2022-09-21T16:59:47;4.93;;;2.17;;
8564;SDS011;4320;51.498;6.556;2022-09-21T17:02:14;4.38;;;1.88;;
8564;SDS011;4320;51.498;6.556;2022-09-21T17:04:40;3.30;;;2.13;;
8564;SDS011;4320;51.498;6.556;2022-09-21T17:07:09;4.22;;;2.00;;
8564;SDS011;4320;51.498;6.556;2022-09-21T17:09:36;3.72;;;2.10;;
8564;SDS011;4320;51.498;6.556;2022-09-21T17:12:07;3.33;;;1.60;;
8564;SDS011;4320;51.498;6.556;2022-09-21T17:14:35;6.07;;;2.22;;
8564;SDS011;4320;51.498;6.556;2022-09-21T17:19:48;4.10;;;1.92;;
8564;SDS011;4320;51.498;6.556;2022-09-21T17:22:16;3.85;;;1.95;;
8564;SDS011;4320;51.498;6.556;2022-09-21T17:24:42;2.67;;;1.75;;
8564;SDS011;4320;51.498;6.556;2022-09-21T17:27:14;3.53;;;2.10;;
8564;SDS011;4320;51.498;6.556;2022-09-21T17:29:44;4.07;;;1.80;;
8564;SDS011;4320;51.498;6.556;2022-09-21T17:32:13;4.50;;;2.15;;
8564;SDS011;4320;51.498;6.556;2022-09-21T17:34:40;4.50;;;2.13;;
8564;SDS011;4320;51.498;6.556;2022-09-21T17:37:06;5.03;;;2.47;;
8564;SDS011;4320;51.498;6.556;2022-09-21T17:39:34;7.15;;;2.80;;
8564;SDS011;4320;51.498;6.556;2022-09-21T17:42:19;5.00;;;2.80;;
8564;SDS011;4320;51.498;6.556;2022-09-21T17:44:53;5.90;;;2.67;;
8564;SDS011;4320;51.498;6.556;2022-09-21T17:47:42;6.85;;;2.67;;
8564;SDS011;4320;51.498;6.556;2022-09-21T17:52:41;9.70;;;2.92;;
8564;SDS011;4320;51.498;6.556;2022-09-21T17:55:26;6.65;;;2.60;;
8564;SDS011;4320;51.498;6.556;2022-09-21T17:57:56;4.13;;;2.40;;
8564;SDS011;4320;51.498;6.556;2022-09-21T18:03:09;2.80;;;2.25;;
8564;SDS011;4320;51.498;6.556;2022-09-21T18:05:46;7.15;;;1.88;;
8564;SDS011;4320;51.498;6.556;2022-09-21T18:08:13;4.95;;;2.50;;
8564;SDS011;4320;51.498;6.556;2022-09-21T18:10:38;6.32;;;2.65;;
8564;SDS011;4320;51.498;6.556;2022-09-21T18:21:22;7.45;;;3.33;;
8564;SDS011;4320;51.498;6.556;2022-09-21T18:26:39;9.57;;;5.00;;
8564;SDS011;4320;51.498;6.556;2022-09-21T18:29:08;8.07;;;4.72;;
8564;SDS011;4320;51.498;6.556;2022-09-21T18:37:47;5.20;;;3.33;;
8564;SDS011;4320;51.498;6.556;2022-09-21T18:40:27;4.57;;;3.00;;
8564;SDS011;4320;51.498;6.556;2022-09-21T18:45:49;7.40;;;3.10;;
8564;SDS011;4320;51.498;6.556;2022-09-21T18:48:33;6.13;;;3.08;;
8564;SDS011;4320;51.498;6.556;2022-09-21T18:54:08;8.50;;;3.28;;
8564;SDS011;4320;51.498;6.556;2022-09-21T18:56:45;5.03;;;3.28;;
8564;SDS011;4320;51.498;6.556;2022-09-21T18:59:12;5.65;;;3.70;;
8564;SDS011;4320;51.498;6.556;2022-09-21T19:01:39;4.95;;;3.78;;
8564;SDS011;4320;51.498;6.556;2022-09-21T19:04:06;8.00;;;4.15;;
8564;SDS011;4320;51.498;6.556;2022-09-21T19:14:38;10.05;;;4.15;;
8564;SDS011;4320;51.498;6.556;2022-09-21T19:17:22;7.80;;;4.15;;
8564;SDS011;4320;51.498;6.556;2022-09-21T19:25:30;8.35;;;4.25;;
8564;SDS011;4320;51.498;6.556;2022-09-21T19:30:42;9.07;;;4.20;;
8564;SDS011;4320;51.498;6.556;2022-09-21T19:33:20;7.88;;;4.40;;
8564;SDS011;4320;51.498;6.556;2022-09-21T19:35:51;5.80;;;4.60;;
8564;SDS011;4320;51.498;6.556;2022-09-21T19:38:17;8.13;;;5.40;;
8564;SDS011;4320;51.498;6.556;2022-09-21T19:40:44;7.55;;;5.03;;
8564;SDS011;4320;51.498;6.556;2022-09-21T19:43:17;25.50;;;19.20;;
8564;SDS011;4320;51.498;6.556;2022-09-21T19:46:57;23.00;;;16.90;;
8564;SDS011;4320;51.498;6.556;2022-09-21T19:49:13;21.23;;;15.75;;
8564;SDS011;4320;51.498;6.556;2022-09-21T19:51:49;13.75;;;9.75;;
8564;SDS011;4320;51.498;6.556;2022-09-21T19:54:17;10.20;;;7.35;;
8564;SDS011;4320;51.498;6.556;2022-09-21T19:57:12;8.57;;;6.07;;